Time,TemperatureF,DewpointF,PressureIn,WindDirection,WindDirectionDegrees,WindSpeedMPH,WindSpeedGustMPH,Humidity,HourlyPrecipIn,Conditions,Clouds,dailyrainin,SoftwareType,DateUTC
2014-02-22 00:10:00,65.6,65.0,30.05,South,169,0.0,0.0,98,0.00,,,0.00,weatherlink.com 1.10,2014-02-22 05:10:00,
2014-02-22 00:25:00,65.6,65.0,30.05,South,169,0.0,0.0,98,0.00,,,0.00,weatherlink.com 1.10,2014-02-22 05:25:00,
2014-02-22 00:40:00,65.6,65.0,30.05,South,169,0.0,1.0,98,0.00,,,0.00,weatherlink.com 1.10,2014-02-22 05:40:00,
2014-02-22 00:55:00,65.5,65.0,30.04,South,169,0.0,0.0,98,0.00,,,0.00,weatherlink.com 1.10,2014-02-22 05:55:00,
2014-02-22 01:10:00,65.4,65.0,30.05,South,169,0.0,0.0,98,0.00,,,0.00,weatherlink.com 1.10,2014-02-22 06:10:00,
2014-02-22 01:25:00,65.4,65.0,30.04,South,169,0.0,0.0,98,0.00,,,0.00,weatherlink.com 1.10,2014-02-22 06:25:00,
2014-02-22 01:40:00,65.3,65.0,30.04,South,169,0.0,0.0,98,0.00,,,0.00,weatherlink.com 1.10,2014-02-22 06:40:00,
2014-02-22 01:55:00,65.3,65.0,30.04,South,169,0.0,0.0,98,0.00,,,0.00,weatherlink.com 1.10,2014-02-22 06:55:00,
2014-02-22 02:10:00,65.2,65.0,30.04,South,169,0.0,0.0,98,0.00,,,0.00,weatherlink.com 1.10,2014-02-22 07:10:00,
2014-02-22 02:25:00,65.2,65.0,30.03,South,169,0.0,0.0,98,0.00,,,0.00,weatherlink.com 1.10,2014-02-22 07:25:00,
2014-02-22 02:40:00,65.1,65.0,30.03,South,169,0.0,0.0,98,0.00,,,0.00,weatherlink.com 1.10,2014-02-22 07:40:00,
2014-02-22 02:55:00,65.1,65.0,30.03,South,169,0.0,0.0,98,0.00,,,0.00,weatherlink.com 1.10,2014-02-22 07:55:00,
2014-02-22 03:10:00,65.0,65.0,30.03,South,169,0.0,0.0,98,0.00,,,0.00,weatherlink.com 1.10,2014-02-22 08:10:00,
2014-02-22 03:25:00,65.0,65.0,30.02,South,169,0.0,0.0,98,0.00,,,0.00,weatherlink.com 1.10,2014-02-22 08:25:00,
2014-02-22 03:40:00,64.9,64.0,30.03,SW,217,0.0,1.0,98,0.00,,,0.00,weatherlink.com 1.10,2014-02-22 08:40:00,
2014-02-22 03:55:00,64.6,64.0,30.03,SW,217,0.0,0.0,98,0.00,,,0.00,weatherlink.com 1.10,2014-02-22 08:55:00,
2014-02-22 04:10:00,64.3,64.0,30.03,SW,217,0.0,0.0,98,0.00,,,0.00,weatherlink.com 1.10,2014-02-22 09:10:00,
2014-02-22 04:25:00,64.1,64.0,30.03,SW,217,0.0,0.0,98,0.00,,,0.00,weatherlink.com 1.10,2014-02-22 09:25:00,
2014-02-22 04:40:00,63.9,63.0,30.02,SW,217,0.0,0.0,98,0.00,,,0.00,weatherlink.com 1.10,2014-02-22 09:40:00,
2014-02-22 04:55:00,63.8,63.0,30.03,SW,217,0.0,0.0,98,0.00,,,0.00,weatherlink.com 1.10,2014-02-22 09:55:00,
2014-02-22 05:10:00,63.7,63.0,30.03,SW,217,0.0,0.0,98,0.00,,,0.00,weatherlink.com 1.10,2014-02-22 10:10:00,
2014-02-22 05:25:00,63.6,63.0,30.03,SW,217,0.0,0.0,98,0.00,,,0.00,weatherlink.com 1.10,2014-02-22 10:25:00,
2014-02-22 05:40:00,63.5,63.0,30.04,SW,227,0.0,2.0,98,0.00,,,0.00,weatherlink.com 1.10,2014-02-22 10:40:00,
2014-02-22 05:55:00,63.4,63.0,30.05,SW,227,0.0,1.0,98,0.00,,,0.00,weatherlink.com 1.10,2014-02-22 10:55:00,
2014-02-22 06:10:00,63.2,63.0,30.05,West,278,0.0,2.0,98,0.00,,,0.00,weatherlink.com 1.10,2014-02-22 11:10:00,
2014-02-22 06:25:00,63.0,63.0,30.05,WNW,284,0.0,3.0,98,0.00,,,0.00,weatherlink.com 1.10,2014-02-22 11:25:00,
2014-02-22 06:40:00,62.8,62.0,30.06,North,350,0.0,2.0,98,0.00,,,0.00,weatherlink.com 1.10,2014-02-22 11:40:00,
2014-02-22 06:56:00,62.4,62.0,30.07,NNW,348,1.0,3.0,98,0.00,,,0.00,weatherlink.com 1.10,2014-02-22 11:56:00,
2014-02-22 07:11:00,62.1,62.0,30.07,NNW,337,0.0,1.0,98,0.00,,,0.00,weatherlink.com 1.10,2014-02-22 12:11:00,
2014-02-22 07:26:00,61.8,61.0,30.08,WNW,290,0.0,1.0,98,0.00,,,0.00,weatherlink.com 1.10,2014-02-22 12:26:00,
2014-02-22 07:41:00,61.8,61.0,30.08,WNW,290,0.0,0.0,98,0.00,,,0.00,weatherlink.com 1.10,2014-02-22 12:41:00,
2014-02-22 07:56:00,61.8,61.0,30.08,WNW,290,1.0,2.0,98,0.00,,,0.00,weatherlink.com 1.10,2014-02-22 12:56:00,
2014-02-22 08:11:00,61.9,61.0,30.09,WNW,286,0.0,2.0,98,0.00,,,0.00,weatherlink.com 1.10,2014-02-22 13:11:00,
2014-02-22 08:26:00,61.9,61.0,30.10,WNW,283,0.0,3.0,98,0.00,,,0.00,weatherlink.com 1.10,2014-02-22 13:26:00,
2014-02-22 08:41:00,62.0,62.0,30.10,ESE,103,0.0,2.0,98,0.00,,,0.00,weatherlink.com 1.10,2014-02-22 13:41:00,
2014-02-22 08:56:00,62.4,62.0,30.11,ESE,103,0.0,2.0,98,0.00,,,0.00,weatherlink.com 1.10,2014-02-22 13:56:00,
2014-02-22 09:11:00,62.5,62.0,30.12,West,267,0.0,2.0,98,0.00,,,0.00,weatherlink.com 1.10,2014-02-22 14:11:00,
2014-02-22 09:26:00,62.9,62.0,30.12,West,280,1.0,2.0,97,0.00,,,0.00,weatherlink.com 1.10,2014-02-22 14:26:00,
2014-02-22 09:41:00,63.3,62.0,30.13,WSW,238,2.0,3.0,95,0.00,,,0.00,weatherlink.com 1.10,2014-02-22 14:41:00,
2014-02-22 09:56:00,64.0,62.0,30.13,West,277,1.0,2.0,93,0.00,,,0.00,weatherlink.com 1.10,2014-02-22 14:56:00,
2014-02-22 10:11:00,65.4,62.0,30.13,WNW,294,2.0,3.0,89,0.00,,,0.00,weatherlink.com 1.10,2014-02-22 15:11:00,
2014-02-22 10:26:00,67.0,62.0,30.12,East,92,1.0,3.0,85,0.00,,,0.00,weatherlink.com 1.10,2014-02-22 15:26:00,
2014-02-22 10:41:00,69.1,63.0,30.12,SSW,197,0.0,3.0,82,0.00,,,0.00,weatherlink.com 1.10,2014-02-22 15:41:00,
2014-02-22 10:56:00,70.9,63.0,30.12,ESE,103,1.0,3.0,77,0.00,,,0.00,weatherlink.com 1.10,2014-02-22 15:56:00,
2014-02-22 11:11:00,71.9,64.0,30.12,WNW,297,1.0,3.0,75,0.00,,,0.00,weatherlink.com 1.10,2014-02-22 16:11:00,
2014-02-22 11:26:00,72.9,64.0,30.12,East,79,0.0,3.0,73,0.00,,,0.00,weatherlink.com 1.10,2014-02-22 16:26:00,
2014-02-22 11:41:00,74.1,65.0,30.11,SE,142,2.0,3.0,72,0.00,,,0.00,weatherlink.com 1.10,2014-02-22 16:41:00,
2014-02-22 11:56:00,74.7,65.0,30.10,SW,220,0.0,4.0,71,0.00,,,0.00,weatherlink.com 1.10,2014-02-22 16:56:00,
2014-02-22 12:11:00,75.8,64.0,30.09,East,89,2.0,5.0,68,0.00,,,0.00,weatherlink.com 1.10,2014-02-22 17:11:00,
2014-02-22 12:26:00,76.3,65.0,30.09,NE,49,0.0,5.0,68,0.00,,,0.00,weatherlink.com 1.10,2014-02-22 17:26:00,
2014-02-22 12:41:00,76.6,65.0,30.08,WNW,303,1.0,3.0,67,0.00,,,0.00,weatherlink.com 1.10,2014-02-22 17:41:00,
2014-02-22 12:56:00,75.0,65.0,30.07,ENE,74,0.0,2.0,70,0.00,,,0.00,weatherlink.com 1.10,2014-02-22 17:56:00,
2014-02-22 13:11:00,75.1,66.0,30.06,SE,126,2.0,3.0,72,0.00,,,0.00,weatherlink.com 1.10,2014-02-22 18:11:00,
2014-02-22 13:26:00,76.0,65.0,30.05,NE,55,0.0,3.0,68,0.00,,,0.00,weatherlink.com 1.10,2014-02-22 18:26:00,
2014-02-22 13:41:00,75.6,65.0,30.05,NW,305,0.0,2.0,69,0.00,,,0.00,weatherlink.com 1.10,2014-02-22 18:41:00,
2014-02-22 13:56:00,75.7,64.0,30.04,NNW,331,1.0,3.0,68,0.00,,,0.00,weatherlink.com 1.10,2014-02-22 18:56:00,
2014-02-22 14:11:00,76.6,65.0,30.04,NW,312,1.0,5.0,67,0.00,,,0.00,weatherlink.com 1.10,2014-02-22 19:11:00,
2014-02-22 14:26:00,75.9,64.0,30.04,SE,124,0.0,1.0,67,0.00,,,0.00,weatherlink.com 1.10,2014-02-22 19:26:00,
2014-02-22 14:41:00,75.6,64.0,30.03,East,100,0.0,3.0,68,0.00,,,0.00,weatherlink.com 1.10,2014-02-22 19:41:00,
2014-02-22 14:57:00,76.6,64.0,30.03,SE,131,1.0,3.0,66,0.00,,,0.00,weatherlink.com 1.10,2014-02-22 19:57:00,
2014-02-22 15:12:00,77.1,66.0,30.03,East,84,0.0,6.0,68,0.00,,,0.00,weatherlink.com 1.10,2014-02-22 20:12:00,
2014-02-22 15:27:00,75.8,66.0,30.03,SE,130,0.0,4.0,71,0.00,,,0.00,weatherlink.com 1.10,2014-02-22 20:27:00,
2014-02-22 15:42:00,74.8,65.0,30.03,East,98,2.0,3.0,72,0.00,,,0.00,weatherlink.com 1.10,2014-02-22 20:42:00,
2014-02-22 15:57:00,74.9,65.0,30.03,SE,144,4.0,5.0,72,0.00,,,0.00,weatherlink.com 1.10,2014-02-22 20:57:00,
2014-02-22 16:12:00,75.1,66.0,30.03,ESE,105,1.0,5.0,72,0.00,,,0.00,weatherlink.com 1.10,2014-02-22 21:12:00,
2014-02-22 16:27:00,74.5,65.0,30.03,SSE,163,0.0,6.0,73,0.00,,,0.00,weatherlink.com 1.10,2014-02-22 21:27:00,
2014-02-22 16:42:00,73.7,64.0,30.04,SE,133,1.0,4.0,72,0.00,,,0.00,weatherlink.com 1.10,2014-02-22 21:42:00,
2014-02-22 16:57:00,73.3,63.0,30.04,SE,135,2.0,3.0,71,0.00,,,0.00,weatherlink.com 1.10,2014-02-22 21:57:00,
2014-02-22 17:12:00,72.7,63.0,30.05,ESE,105,0.0,2.0,71,0.00,,,0.00,weatherlink.com 1.10,2014-02-22 22:12:00,
2014-02-22 17:27:00,72.2,62.0,30.05,ENE,65,0.0,1.0,70,0.00,,,0.00,weatherlink.com 1.10,2014-02-22 22:27:00,
2014-02-22 17:42:00,71.8,62.0,30.05,NE,53,0.0,1.0,72,0.00,,,0.00,weatherlink.com 1.10,2014-02-22 22:42:00,
2014-02-22 17:57:00,71.3,62.0,30.05,ESE,104,0.0,2.0,72,0.00,,,0.00,weatherlink.com 1.10,2014-02-22 22:57:00,
2014-02-22 18:12:00,70.6,62.0,30.06,NNE,30,0.0,1.0,74,0.00,,,0.00,weatherlink.com 1.10,2014-02-22 23:12:00,
2014-02-22 18:27:00,69.9,61.0,30.07,NE,34,0.0,1.0,74,0.00,,,0.00,weatherlink.com 1.10,2014-02-22 23:27:00,
2014-02-22 18:42:00,68.6,58.0,30.07,NE,35,0.0,2.0,70,0.00,,,0.00,weatherlink.com 1.10,2014-02-22 23:42:00,
2014-02-22 18:57:00,67.3,55.0,30.07,East,82,0.0,1.0,65,0.00,,,0.00,weatherlink.com 1.10,2014-02-22 23:57:00,
2014-02-22 19:12:00,65.9,53.0,30.07,South,190,1.0,2.0,63,0.00,,,0.00,weatherlink.com 1.10,2014-02-23 00:12:00,
2014-02-22 19:27:00,64.9,53.0,30.07,East,85,0.0,0.0,65,0.00,,,0.00,weatherlink.com 1.10,2014-02-23 00:27:00,
2014-02-22 19:42:00,64.2,52.0,30.08,East,85,0.0,0.0,65,0.00,,,0.00,weatherlink.com 1.10,2014-02-23 00:42:00,
2014-02-22 19:57:00,63.4,53.0,30.08,East,85,0.0,0.0,68,0.00,,,0.00,weatherlink.com 1.10,2014-02-23 00:57:00,
2014-02-22 20:12:00,62.3,51.0,30.08,East,85,0.0,0.0,67,0.00,,,0.00,weatherlink.com 1.10,2014-02-23 01:12:00,
2014-02-22 20:27:00,61.6,52.0,30.09,East,85,0.0,0.0,72,0.00,,,0.00,weatherlink.com 1.10,2014-02-23 01:27:00,
2014-02-22 20:42:00,60.9,51.0,30.09,East,85,0.0,0.0,69,0.00,,,0.00,weatherlink.com 1.10,2014-02-23 01:42:00,
2014-02-22 20:57:00,60.1,51.0,30.09,East,85,0.0,0.0,73,0.00,,,0.00,weatherlink.com 1.10,2014-02-23 01:57:00,
2014-02-22 21:12:00,59.3,51.0,30.09,East,85,0.0,0.0,74,0.00,,,0.00,weatherlink.com 1.10,2014-02-23 02:12:00,
2014-02-22 21:27:00,58.3,51.0,30.09,East,85,0.0,0.0,77,0.00,,,0.00,weatherlink.com 1.10,2014-02-23 02:27:00,
2014-02-22 21:42:00,57.5,51.0,30.09,East,85,0.0,0.0,78,0.00,,,0.00,weatherlink.com 1.10,2014-02-23 02:42:00,
2014-02-22 21:57:00,56.7,51.0,30.10,East,85,0.0,0.0,80,0.00,,,0.00,weatherlink.com 1.10,2014-02-23 02:57:00,
2014-02-22 22:12:00,56.0,51.0,30.09,East,85,0.0,0.0,83,0.00,,,0.00,weatherlink.com 1.10,2014-02-23 03:12:00,
2014-02-22 22:27:00,55.4,50.0,30.09,East,85,0.0,0.0,83,0.00,,,0.00,weatherlink.com 1.10,2014-02-23 03:27:00,
2014-02-22 22:42:00,54.9,50.0,30.09,East,85,0.0,0.0,84,0.00,,,0.00,weatherlink.com 1.10,2014-02-23 03:42:00,
2014-02-22 22:57:00,54.4,50.0,30.09,East,85,0.0,0.0,85,0.00,,,0.00,weatherlink.com 1.10,2014-02-23 03:57:00,
2014-02-22 23:12:00,53.9,50.0,30.09,East,85,0.0,0.0,85,0.00,,,0.00,weatherlink.com 1.10,2014-02-23 04:12:00,
2014-02-22 23:27:00,53.3,49.0,30.09,East,85,0.0,0.0,86,0.00,,,0.00,weatherlink.com 1.10,2014-02-23 04:27:00,
2014-02-22 23:42:00,52.9,49.0,30.09,East,85,0.0,0.0,87,0.00,,,0.00,weatherlink.com 1.10,2014-02-23 04:42:00,
2014-02-22 23:57:00,52.5,49.0,30.09,East,85,0.0,0.0,88,0.00,,,0.00,weatherlink.com 1.10,2014-02-23 04:57:00,